
Distance (Route):
Temperature : 0°C
Humidity : 0%
Pressure : 0hPa| Receiver | Date | Latitude | Longitude | Direction | Speed | Altitude | Climb | Temperature | Humidity | Pressure | Voltage | Killtimer | Uptime | BKT | XDATA |
|---|---|---|---|---|---|---|---|---|---|---|---|---|---|---|---|
| RDZBGO | 2026-08-30 13:42:03 | 42.01044 | 9.43493 | 149° | 24km/h | 2778m | -5.9m/s | 0°C | 0% | 0hPa | 0V | 00:00:00 | 00:00:00 | 00:00:00 | |
| RDZBGO | 2026-08-30 13:41:42 | 42.01109 | 9.43409 | 102° | 13km/h | 2902m | -5.6m/s | 0°C | 0% | 0hPa | 0V | 00:00:00 | 00:00:00 | 00:00:00 | |
| RDZBGO | 2026-08-30 13:41:21 | 42.01142 | 9.43320 | 143° | 18km/h | 3022m | -5.8m/s | 0°C | 0% | 0hPa | 0V | 00:00:00 | 00:00:00 | 00:00:00 | |
| RDZBGO | 2026-08-30 13:41:01 | 42.01178 | 9.43237 | 113° | 18km/h | 3143m | -6.0m/s | 0°C | 0% | 0hPa | 0V | 00:00:00 | 00:00:00 | 00:00:00 | |
| RDZBGO | 2026-08-30 13:40:41 | 42.01223 | 9.43176 | 108° | 18km/h | 3269m | -5.9m/s | 0°C | 0% | 0hPa | 0V | 00:00:00 | 00:00:00 | 00:00:00 | |
| RDZBGO | 2026-08-30 13:40:20 | 42.01246 | 9.43100 | 164° | 4km/h | 3400m | -5.7m/s | 0°C | 0% | 0hPa | 0V | 00:00:00 | 00:00:00 | 00:00:00 | |
| RDZBGO | 2026-08-30 13:40:00 | 42.01243 | 9.43036 | 45° | 16km/h | 3527m | -6.4m/s | 0°C | 0% | 0hPa | 0V | 00:00:00 | 00:00:00 | 00:00:00 | |
| RDZBGO | 2026-08-30 13:39:40 | 42.01216 | 9.42942 | 42° | 11km/h | 3652m | -6.5m/s | 0°C | 0% | 0hPa | 0V | 00:00:00 | 00:00:00 | 00:00:00 | |
| RDZBGO | 2026-08-30 13:39:20 | 42.01205 | 9.42849 | 45° | 18km/h | 3780m | -6.5m/s | 0°C | 0% | 0hPa | 0V | 00:00:00 | 00:00:00 | 00:00:00 | |
| RDZBGO | 2026-08-30 13:38:59 | 42.01194 | 9.42752 | 96° | 24km/h | 3915m | -6.6m/s | 0°C | 0% | 0hPa | 0V | 00:00:00 | 00:00:00 | 00:00:00 | |
| RDZBGO | 2026-08-30 13:38:39 | 42.01157 | 9.42601 | 89° | 26km/h | 4048m | -6.7m/s | 0°C | 0% | 0hPa | 0V | 00:00:00 | 00:00:00 | 00:00:00 | |
| RDZBGO | 2026-08-30 13:38:18 | 42.01112 | 9.42418 | 77° | 37km/h | 4185m | -7.1m/s | 0°C | 0% | 0hPa | 0V | 00:00:00 | 00:00:00 | 00:00:00 | |
| RDZBGO | 2026-08-30 13:37:57 | 42.01105 | 9.42198 | 74° | 38km/h | 4321m | -6.9m/s | 0°C | 0% | 0hPa | 0V | 00:00:00 | 00:00:00 | 00:00:00 | |
| RDZBGO | 2026-08-30 13:37:36 | 42.01109 | 9.41951 | 107° | 35km/h | 4462m | -6.5m/s | 0°C | 0% | 0hPa | 0V | 00:00:00 | 00:00:00 | 00:00:00 | |
| RDZBGO | 2026-08-30 13:37:16 | 42.01130 | 9.41681 | 90° | 35km/h | 4597m | -6.4m/s | 0°C | 0% | 0hPa | 0V | 00:00:00 | 00:00:00 | 00:00:00 | |
| RDZBGO | 2026-08-30 13:36:56 | 42.01139 | 9.41373 | 86° | 53km/h | 4733m | -5.9m/s | 0°C | 0% | 0hPa | 0V | 00:00:00 | 00:00:00 | 00:00:00 | |
| RDZBGO | 2026-08-30 13:36:35 | 42.01151 | 9.41009 | 94° | 60km/h | 4869m | -6.4m/s | 0°C | 0% | 0hPa | 0V | 00:00:00 | 00:00:00 | 00:00:00 | |
| RDZBGO | 2026-08-30 13:36:14 | 42.01163 | 9.40639 | 101° | 57km/h | 5008m | -6.9m/s | 0°C | 0% | 0hPa | 0V | 00:00:00 | 00:00:00 | 00:00:00 | |
| RDZBGO | 2026-08-30 13:35:54 | 42.01169 | 9.40269 | 86° | 58km/h | 5144m | -6.8m/s | 0°C | 0% | 0hPa | 0V | 00:00:00 | 00:00:00 | 00:00:00 | |
| RDZBGO | 2026-08-30 13:35:33 | 42.01151 | 9.39887 | 90° | 47km/h | 5291m | -6.9m/s | 0°C | 0% | 0hPa | 0V | 00:00:00 | 00:00:00 | 00:00:00 | |
| RDZBGO | 2026-08-30 13:35:13 | 42.01134 | 9.39534 | 79° | 58km/h | 5435m | -7.6m/s | 0°C | 0% | 0hPa | 0V | 00:00:00 | 00:00:00 | 00:00:00 | |
| RDZBGO | 2026-08-30 13:34:52 | 42.01111 | 9.39182 | 95° | 53km/h | 5586m | -7.2m/s | 0°C | 0% | 0hPa | 0V | 00:00:00 | 00:00:00 | 00:00:00 | |
| RDZBGO | 2026-08-30 13:34:31 | 42.01087 | 9.38838 | 87° | 57km/h | 5739m | -7.4m/s | 0°C | 0% | 0hPa | 0V | 00:00:00 | 00:00:00 | 00:00:00 | |
| RDZBGO | 2026-08-30 13:34:10 | 42.01053 | 9.38466 | 73° | 53km/h | 5898m | -7.6m/s | 0°C | 0% | 0hPa | 0V | 00:00:00 | 00:00:00 | 00:00:00 | |
| RDZBGO | 2026-08-30 13:33:49 | 42.01008 | 9.38093 | 87° | 62km/h | 6059m | -8.1m/s | 0°C | 0% | 0hPa | 0V | 00:00:00 | 00:00:00 | 00:00:00 | |
| RDZBGO | 2026-08-30 13:33:29 | 42.00970 | 9.37736 | 79° | 47km/h | 6209m | -6.9m/s | 0°C | 0% | 0hPa | 0V | 00:00:00 | 00:00:00 | 00:00:00 | |
| RDZBGO | 2026-08-30 13:33:08 | 42.00919 | 9.37331 | 86° | 62km/h | 6362m | -6.5m/s | 0°C | 0% | 0hPa | 0V | 00:00:00 | 00:00:00 | 00:00:00 | |
| RDZBGO | 2026-08-30 13:32:48 | 42.00846 | 9.36942 | 67° | 64km/h | 6501m | -6.8m/s | 0°C | 0% | 0hPa | 0V | 00:00:00 | 00:00:00 | 00:00:00 | |
| RDZBGO | 2026-08-30 13:32:27 | 42.00781 | 9.36586 | 82° | 46km/h | 6641m | -6.5m/s | 0°C | 0% | 0hPa | 0V | 00:00:00 | 00:00:00 | 00:00:00 | |
| RDZBGO | 2026-08-30 13:32:06 | 42.00694 | 9.36235 | 61° | 46km/h | 6788m | -6.7m/s | 0°C | 0% | 0hPa | 0V | 00:00:00 | 00:00:00 | 00:00:00 | |
| RDZBGO | 2026-08-30 13:31:45 | 42.00547 | 9.35870 | 62° | 58km/h | 6986m | -9.5m/s | 0°C | 0% | 0hPa | 0V | 00:00:00 | 00:00:00 | 00:00:00 | |
| RDZBGO | 2026-08-30 13:31:24 | 42.00421 | 9.35478 | 66° | 62km/h | 7243m | -12.3m/s | 0°C | 0% | 0hPa | 0V | 00:00:00 | 00:00:00 | 00:00:00 | |
| RDZBGO | 2026-08-30 13:30:42 | 42.00240 | 9.34788 | 79° | 47km/h | 7739m | -9.0m/s | 0°C | 0% | 0hPa | 0V | 00:00:00 | 00:00:00 | 00:00:00 | |
| RDZBGO | 2026-08-30 13:30:21 | 42.00181 | 9.34473 | 76° | 42km/h | 7932m | -9.3m/s | 0°C | 0% | 0hPa | 0V | 00:00:00 | 00:00:00 | 00:00:00 | |
| RDZBGO | 2026-08-30 13:30:00 | 42.00128 | 9.34164 | 76° | 44km/h | 8124m | -9.3m/s | 0°C | 0% | 0hPa | 0V | 00:00:00 | 00:00:00 | 00:00:00 | |
| RDZBGO | 2026-08-30 13:29:38 | 42.00062 | 9.33831 | 78° | 49km/h | 8323m | -9.2m/s | 0°C | 0% | 0hPa | 0V | 00:00:00 | 00:00:00 | 00:00:00 | |
| RDZBGO | 2026-08-30 13:29:18 | 42.00013 | 9.33515 | 84° | 46km/h | 8527m | -11.0m/s | 0°C | 0% | 0hPa | 0V | 00:00:00 | 00:00:00 | 00:00:00 | |
| RDZBGO | 2026-08-30 13:28:57 | 41.99975 | 9.33163 | 75° | 53km/h | 8759m | -11.1m/s | 0°C | 0% | 0hPa | 0V | 00:00:00 | 00:00:00 | 00:00:00 | |
| RDZBGO | 2026-08-30 13:28:37 | 41.99909 | 9.32806 | 80° | 51km/h | 8964m | -13.0m/s | 0°C | 0% | 0hPa | 0V | 00:00:00 | 00:00:00 | 00:00:00 | |
| RDZBGO | 2026-08-30 13:28:17 | 41.99839 | 9.32454 | 80° | 53km/h | 9149m | -7.9m/s | 0°C | 0% | 0hPa | 0V | 00:00:00 | 00:00:00 | 00:00:00 | |
| RDZBGO | 2026-08-30 13:27:57 | 41.99799 | 9.32095 | 85° | 58km/h | 9367m | -11.6m/s | 0°C | 0% | 0hPa | 0V | 00:00:00 | 00:00:00 | 00:00:00 | |
| RDZBGO | 2026-08-30 13:27:37 | 41.99758 | 9.31730 | 87° | 57km/h | 9564m | -7.6m/s | 0°C | 0% | 0hPa | 0V | 00:00:00 | 00:00:00 | 00:00:00 | |
| RDZBGO | 2026-08-30 13:27:16 | 41.99716 | 9.31304 | 84° | 62km/h | 9770m | -10.6m/s | 0°C | 0% | 0hPa | 0V | 00:00:00 | 00:00:00 | 00:00:00 | |
| RDZBGO | 2026-08-30 13:26:56 | 41.99678 | 9.30885 | 87° | 58km/h | 9996m | -13.7m/s | 0°C | 0% | 0hPa | 0V | 00:00:00 | 00:00:00 | 00:00:00 | |
| RDZBGO | 2026-08-30 13:26:36 | 41.99677 | 9.30533 | 93° | 47km/h | 10242m | -14.3m/s | 0°C | 0% | 0hPa | 0V | 00:00:00 | 00:00:00 | 00:00:00 | |
| RDZBGO | 2026-08-30 13:26:15 | 41.99686 | 9.30182 | 81° | 62km/h | 10511m | -13.9m/s | 0°C | 0% | 0hPa | 0V | 00:00:00 | 00:00:00 | 00:00:00 | |
| RDZBGO | 2026-08-30 13:25:55 | 41.99728 | 9.29840 | 82° | 31km/h | 10762m | -11.9m/s | 0°C | 0% | 0hPa | 0V | 00:00:00 | 00:00:00 | 00:00:00 | |
| RDZBGO | 2026-08-30 13:25:35 | 41.99773 | 9.29448 | 89° | 77km/h | 10997m | -11.5m/s | 0°C | 0% | 0hPa | 0V | 00:00:00 | 00:00:00 | 00:00:00 | |
| RDZBGO | 2026-08-30 13:25:14 | 41.99826 | 9.29034 | 86° | 84km/h | 11246m | -12.8m/s | 0°C | 0% | 0hPa | 0V | 00:00:00 | 00:00:00 | 00:00:00 | |
| RDZBGO | 2026-08-30 13:24:52 | 41.99875 | 9.28580 | 85° | 82km/h | 11521m | -12.2m/s | 0°C | 0% | 0hPa | 0V | 00:00:00 | 00:00:00 | 00:00:00 | |
| RDZBGO | 2026-08-30 13:24:30 | 41.99929 | 9.28089 | 114° | 46km/h | 11793m | -12.4m/s | 0°C | 0% | 0hPa | 0V | 00:00:00 | 00:00:00 | 00:00:00 | |
| RDZBGO | 2026-08-30 13:24:08 | 41.99992 | 9.27583 | 127° | 57km/h | 12073m | -12.9m/s | 0°C | 0% | 0hPa | 0V | 00:00:00 | 00:00:00 | 00:00:00 | |
| RDZBGO | 2026-08-30 13:23:48 | 42.00058 | 9.27140 | 96° | 38km/h | 12364m | -15.5m/s | 0°C | 0% | 0hPa | 0V | 00:00:00 | 00:00:00 | 00:00:00 | |
| RDZBGO | 2026-08-30 13:23:27 | 42.00124 | 9.26658 | 126° | 66km/h | 12659m | -13.6m/s | 0°C | 0% | 0hPa | 0V | 00:00:00 | 00:00:00 | 00:00:00 | |
| RDZBGO | 2026-08-30 13:23:07 | 42.00171 | 9.26176 | 73° | 60km/h | 12944m | -14.0m/s | 0°C | 0% | 0hPa | 0V | 00:00:00 | 00:00:00 | 00:00:00 | |
| RDZBGO | 2026-08-30 13:22:45 | 42.00228 | 9.25660 | 75° | 66km/h | 13249m | -14.4m/s | 0°C | 0% | 0hPa | 0V | 00:00:00 | 00:00:00 | 00:00:00 | |
| RDZBGO | 2026-08-30 13:22:25 | 42.00289 | 9.25160 | 102° | 69km/h | 13564m | -15.1m/s | 0°C | 0% | 0hPa | 0V | 00:00:00 | 00:00:00 | 00:00:00 | |
| RDZBGO | 2026-08-30 13:22:05 | 42.00383 | 9.24684 | 105° | 68km/h | 13856m | -18.1m/s | 0°C | 0% | 0hPa | 0V | 00:00:00 | 00:00:00 | 00:00:00 | |
| RDZBGO | 2026-08-30 13:21:44 | 42.00417 | 9.24259 | 84° | 55km/h | 14175m | -15.3m/s | 0°C | 0% | 0hPa | 0V | 00:00:00 | 00:00:00 | 00:00:00 | |
| RDZBGO | 2026-08-30 13:21:24 | 42.00382 | 9.23855 | 95° | 58km/h | 14507m | -17.9m/s | 0°C | 0% | 0hPa | 0V | 00:00:00 | 00:00:00 | 00:00:00 | |
| RDZBGO | 2026-08-30 13:21:04 | 42.00357 | 9.23532 | 70° | 55km/h | 14863m | -20.1m/s | 0°C | 0% | 0hPa | 0V | 00:00:00 | 00:00:00 | 00:00:00 | |
| RDZBGO | 2026-08-30 13:20:43 | 42.00311 | 9.23154 | 98° | 57km/h | 15260m | -19.3m/s | 0°C | 0% | 0hPa | 0V | 00:00:00 | 00:00:00 | 00:00:00 | |
| RDZBGO | 2026-08-30 13:20:22 | 42.00368 | 9.22811 | 97° | 46km/h | 15657m | -19.4m/s | 0°C | 0% | 0hPa | 0V | 00:00:00 | 00:00:00 | 00:00:00 | |
| RDZBGO | 2026-08-30 13:20:01 | 42.00328 | 9.22562 | 75° | 51km/h | 16070m | -17.9m/s | 0°C | 0% | 0hPa | 0V | 00:00:00 | 00:00:00 | 00:00:00 | |
| RDZBGO | 2026-08-30 13:19:41 | 42.00298 | 9.22177 | 93° | 60km/h | 16439m | -18.8m/s | 0°C | 0% | 0hPa | 0V | 00:00:00 | 00:00:00 | 00:00:00 | |
| IW2NTF | 2026-08-30 13:19:26 | 42.00338 | 9.21891 | 101° | 20km/h | 16819m | -20.7m/s | 0°C | 0% | 0hPa | 0V | 00:00:00 | 00:00:00 | 00:00:00 | |
| RDZBGO | 2026-08-30 13:19:20 | 42.00338 | 9.21891 | 102° | 20km/h | 16819m | -20.7m/s | 0°C | 0% | 0hPa | 0V | 00:00:00 | 00:00:00 | 00:00:00 | |
| IW2NTF | 2026-08-30 13:19:03 | 42.00333 | 9.21810 | 124° | 13km/h | 17123m | -14.9m/s | 0°C | 0% | 0hPa | 0V | 00:00:00 | 00:00:00 | 00:00:00 | |
| RDZBGO | 2026-08-30 13:19:00 | 42.00333 | 9.21804 | 82° | 13km/h | 17153m | -14.4m/s | 0°C | 0% | 0hPa | 0V | 00:00:00 | 00:00:00 | 00:00:00 | |
| IW2NTF | 2026-08-30 13:18:58 | 42.00338 | 9.21758 | 99° | 11km/h | 17276m | -17.4m/s | 0°C | 0% | 0hPa | 0V | 00:00:00 | 00:00:00 | 00:00:00 | |
| IW2NTF | 2026-08-30 13:18:39 | 42.00321 | 9.21708 | 69° | 11km/h | 17564m | -18.8m/s | 0°C | 0% | 0hPa | 0V | 00:00:00 | 00:00:00 | 00:00:00 | |
| RDZBGO | 2026-08-30 13:18:39 | 42.00330 | 9.21722 | 28° | 11km/h | 17493m | -15.2m/s | 0°C | 0% | 0hPa | 0V | 00:00:00 | 00:00:00 | 00:00:00 | |
| IW2NTF | 2026-08-30 13:18:26 | 42.00294 | 9.21632 | 55° | 18km/h | 17836m | -17.6m/s | 0°C | 0% | 0hPa | 0V | 00:00:00 | 00:00:00 | 00:00:00 | |
| RDZBGO | 2026-08-30 13:18:19 | 42.00292 | 9.21628 | 68° | 15km/h | 17853m | -17.3m/s | 0°C | 0% | 0hPa | 0V | 00:00:00 | 00:00:00 | 00:00:00 | |
| IW2NTF | 2026-08-30 13:18:13 | 42.00264 | 9.21585 | 32° | 16km/h | 18070m | -19.4m/s | 0°C | 0% | 0hPa | 0V | 00:00:00 | 00:00:00 | 00:00:00 | |
| RDZBGO | 2026-08-30 13:17:59 | 42.00236 | 9.21545 | 58° | 22km/h | 18217m | -17.5m/s | 0°C | 0% | 0hPa | 0V | 00:00:00 | 00:00:00 | 00:00:00 | |
| IW2NTF | 2026-08-30 13:17:55 | 42.00213 | 9.21471 | 75° | 33km/h | 18383m | -15.6m/s | 0°C | 0% | 0hPa | 0V | 00:00:00 | 00:00:00 | 00:00:00 | |
| RDZBGO | 2026-08-30 13:17:38 | 42.00192 | 9.21351 | 85° | 33km/h | 18620m | -20.4m/s | 0°C | 0% | 0hPa | 0V | 00:00:00 | 00:00:00 | 00:00:00 | |
| IW2NTF | 2026-08-30 13:17:24 | 42.00234 | 9.21194 | 177° | 13km/h | 19012m | -17.7m/s | 0°C | 0% | 0hPa | 0V | 00:00:00 | 00:00:00 | 00:00:00 | |
| RDZBGO | 2026-08-30 13:17:17 | 42.00240 | 9.21196 | 201° | 11km/h | 19048m | -17.8m/s | 0°C | 0% | 0hPa | 0V | 00:00:00 | 00:00:00 | 00:00:00 | |
| IW2NTF | 2026-08-30 13:17:11 | 42.00252 | 9.21222 | 268° | 7km/h | 19229m | -15.3m/s | 0°C | 0% | 0hPa | 0V | 00:00:00 | 00:00:00 | 00:00:00 | |
| RDZBGO | 2026-08-30 13:16:57 | 42.00246 | 9.21244 | 279° | 9km/h | 19372m | -16.4m/s | 0°C | 0% | 0hPa | 0V | 00:00:00 | 00:00:00 | 00:00:00 | |
| IW2NTF | 2026-08-30 13:16:54 | 42.00243 | 9.21269 | 271° | 16km/h | 19449m | -16m/s | 0°C | 0% | 0hPa | 0V | 00:00:00 | 00:00:00 | 00:00:00 | |
| RDZBGO | 2026-08-30 13:15:33 | 41.99973 | 9.21536 | 318° | 7km/h | 21015m | -20.7m/s | 0°C | 0% | 0hPa | 0V | 00:00:00 | 00:00:00 | 00:00:00 | |
| RDZBGO | 2026-08-30 13:15:13 | 41.99949 | 9.21632 | 334° | 16km/h | 21373m | -18.5m/s | 0°C | 0% | 0hPa | 0V | 00:00:00 | 00:00:00 | 00:00:00 | |
| RDZBGO | 2026-08-30 13:14:52 | 41.99884 | 9.21578 | 70° | 22km/h | 21762m | -16.4m/s | 0°C | 0% | 0hPa | 0V | 00:00:00 | 00:00:00 | 00:00:00 | |
| RDZBGO | 2026-08-30 13:14:31 | 41.99905 | 9.21562 | 201° | 5km/h | 22214m | -23.9m/s | 0°C | 0% | 0hPa | 0V | 00:00:00 | 00:00:00 | 00:00:00 | |
| IW2NTF | 2026-08-30 13:14:24 | 41.99902 | 9.21593 | 285° | 24km/h | 22473m | -25.2m/s | 0°C | 0% | 0hPa | 0V | 00:00:00 | 00:00:00 | 00:00:00 | |
| RDZBGO | 2026-08-30 13:14:11 | 41.99866 | 9.21670 | 318° | 33km/h | 22686m | -22.2m/s | 0°C | 0% | 0hPa | 0V | 00:00:00 | 00:00:00 | 00:00:00 | |
| RDZBGO | 2026-08-30 13:13:51 | 41.99725 | 9.21730 | 11° | 22km/h | 23153m | -23.8m/s | 0°C | 0% | 0hPa | 0V | 00:00:00 | 00:00:00 | 00:00:00 | |
| RDZBGO | 2026-08-30 13:13:30 | 41.99662 | 9.21771 | 318° | 15km/h | 23656m | -24.6m/s | 0°C | 0% | 0hPa | 0V | 00:00:00 | 00:00:00 | 00:00:00 | |
| IW2NTF | 2026-08-30 13:13:13 | 41.99602 | 9.21817 | 289° | 2km/h | 24200m | -25.5m/s | 0°C | 0% | 0hPa | 0V | 00:00:00 | 00:00:00 | 00:00:00 | |
| RDZBGO | 2026-08-30 13:13:10 | 41.99604 | 9.21814 | 353° | 9km/h | 24149m | -25.6m/s | 0°C | 0% | 0hPa | 0V | 00:00:00 | 00:00:00 | 00:00:00 | |
| RDZBGO | 2026-08-30 13:12:49 | 41.99584 | 9.21858 | 354° | 15km/h | 24662m | -25.7m/s | 0°C | 0% | 0hPa | 0V | 00:00:00 | 00:00:00 | 00:00:00 | |
| IW2NTF | 2026-08-30 13:12:43 | 41.99567 | 9.21875 | 292° | 9km/h | 24920m | -28.4m/s | 0°C | 0% | 0hPa | 0V | 00:00:00 | 00:00:00 | 00:00:00 | |
| IW2NTF | 2026-08-30 13:12:31 | 41.99536 | 9.21910 | 312° | 11km/h | 25295m | -25.1m/s | 0°C | 0% | 0hPa | 0V | 00:00:00 | 00:00:00 | 00:00:00 | |
| RDZBGO | 2026-08-30 13:12:29 | 41.99547 | 9.21898 | 334° | 18km/h | 25193m | -27.5m/s | 0°C | 0% | 0hPa | 0V | 00:00:00 | 00:00:00 | 00:00:00 | |
| RDZBGO | 2026-08-30 13:11:40 | 41.99488 | 9.21939 | 299° | 9km/h | 26506m | -32.7m/s | 0°C | 0% | 0hPa | 0V | 00:00:00 | 00:00:00 | 00:00:00 | |
| IW2NTF | 2026-08-30 13:11:39 | 41.99483 | 9.21946 | 327° | 15km/h | 26568m | -30.3m/s | 0°C | 0% | 0hPa | 0V | 00:00:00 | 00:00:00 | 00:00:00 | |
| RDZBGO | 2026-08-30 13:11:19 | 41.99458 | 9.21928 | 330° | 7km/h | 27152m | -31.7m/s | 0°C | 0% | 0hPa | 0V | 00:00:00 | 00:00:00 | 00:00:00 | |
| RDZBGO | 2026-08-30 13:10:59 | 41.99379 | 9.21917 | 170° | 2km/h | 27777m | -33.0m/s | 0°C | 0% | 0hPa | 0V | 00:00:00 | 00:00:00 | 00:00:00 | |
| RDZBGO | 2026-08-30 13:10:38 | 41.99379 | 9.21994 | 311° | 24km/h | 28494m | -36.6m/s | 0°C | 0% | 0hPa | 0V | 00:00:00 | 00:00:00 | 00:00:00 | |
| IW2NTF | 2026-08-30 13:10:27 | 41.99329 | 9.22069 | 326° | 33km/h | 28936m | -38.2m/s | 0°C | 0% | 0hPa | 0V | 00:00:00 | 00:00:00 | 00:00:00 | |
| RDZBGO | 2026-08-30 13:10:18 | 41.99290 | 9.22089 | 329° | 13km/h | 29224m | -36.7m/s | 0°C | 0% | 0hPa | 0V | 00:00:00 | 00:00:00 | 00:00:00 | |
| IW2NTF | 2026-08-30 13:09:56 | 41.99125 | 9.22078 | 70° | 13km/h | 30265m | -42.3m/s | 0°C | 0% | 0hPa | 0V | 00:00:00 | 00:00:00 | 00:00:00 | |
| RDZBGO | 2026-08-30 13:09:56 | 41.99145 | 9.22100 | 25° | 24km/h | 30034m | -37.4m/s | 0°C | 0% | 0hPa | 0V | 00:00:00 | 00:00:00 | 00:00:00 | |
| RDZBGO | 2026-08-30 13:09:36 | 41.99080 | 9.22042 | 19° | 37km/h | 30830m | -40.4m/s | 0°C | 0% | 0hPa | 0V | 00:00:00 | 00:00:00 | 00:00:00 | |
| RDZBGO | 2026-08-30 13:09:15 | 41.99027 | 9.21965 | 169° | 15km/h | 31626m | -36.5m/s | 0°C | 0% | 0hPa | 0V | 00:00:00 | 00:00:00 | 00:00:00 | |
| RDZBGO | 2026-08-30 13:08:54 | 41.99019 | 9.22007 | 328° | 18km/h | 32453m | -38.8m/s | 0°C | 0% | 0hPa | 0V | 00:00:00 | 00:00:00 | 00:00:00 | |
| RDZBGO | 2026-08-30 13:08:34 | 41.99048 | 9.22043 | 208° | 16km/h | 33313m | -46.6m/s | 0°C | 0% | 0hPa | 0V | 00:00:00 | 00:00:00 | 00:00:00 | |
| RDZBGO | 2026-08-30 13:08:13 | 41.99096 | 9.22175 | 260° | 27km/h | 34251m | -46.4m/s | 0°C | 0% | 0hPa | 0V | 00:00:00 | 00:00:00 | 00:00:00 | |
| RDZBGO | 2026-08-30 13:07:52 | 41.99093 | 9.22368 | 288° | 26km/h | 35093m | -40.0m/s | 0°C | 0% | 0hPa | 0V | 00:00:00 | 00:00:00 | 00:00:00 | |
| RDZBGO | 2026-08-30 13:07:32 | 41.99018 | 9.22665 | 312° | 26km/h | 35364m | 8.4m/s | 0°C | 0% | 0hPa | 0V | 00:00:00 | 00:00:00 | 00:00:00 | |
| RDZBGO | 2026-08-30 13:07:11 | 41.98958 | 9.22928 | 292° | 80km/h | 35245m | -0.2m/s | 0°C | 0% | 0hPa | 0V | 00:00:00 | 00:00:00 | 00:00:00 | |
| RDZBGO | 2026-08-30 13:06:50 | 41.98937 | 9.23152 | 290° | 64km/h | 35130m | 8.6m/s | 0°C | 0% | 0hPa | 0V | 00:00:00 | 00:00:00 | 00:00:00 | |
| RDZBGO | 2026-08-30 13:06:29 | 41.98944 | 9.23351 | 340° | 44km/h | 35016m | 4.0m/s | 0°C | 0% | 0hPa | 0V | 00:00:00 | 00:00:00 | 00:00:00 | |
| RDZBGO | 2026-08-30 13:06:09 | 41.98977 | 9.23515 | 132° | 4km/h | 34911m | 6.7m/s | 0°C | 0% | 0hPa | 0V | 00:00:00 | 00:00:00 | 00:00:00 | |
| RDZBGO | 2026-08-30 13:05:48 | 41.98965 | 9.23602 | 217° | 44km/h | 34792m | 0.3m/s | 0°C | 0% | 0hPa | 0V | 00:00:00 | 00:00:00 | 00:00:00 | |
| RDZBGO | 2026-08-30 13:05:28 | 41.98930 | 9.23688 | 277° | 49km/h | 34680m | 8.8m/s | 0°C | 0% | 0hPa | 0V | 00:00:00 | 00:00:00 | 00:00:00 | |
| RDZBGO | 2026-08-30 13:05:08 | 41.98925 | 9.23894 | 347° | 33km/h | 34561m | 2.7m/s | 0°C | 0% | 0hPa | 0V | 00:00:00 | 00:00:00 | 00:00:00 | |
| RDZBGO | 2026-08-30 13:04:48 | 41.98963 | 9.24166 | 179° | 16km/h | 34446m | 9.7m/s | 0°C | 0% | 0hPa | 0V | 00:00:00 | 00:00:00 | 00:00:00 | |
| RDZBGO | 2026-08-30 13:04:27 | 41.99006 | 9.24377 | 187° | 42km/h | 34318m | 6.6m/s | 0°C | 0% | 0hPa | 0V | 00:00:00 | 00:00:00 | 00:00:00 | |
| RDZBGO | 2026-08-30 13:04:06 | 41.99040 | 9.24519 | 167° | 51km/h | 34189m | 6.3m/s | 0°C | 0% | 0hPa | 0V | 00:00:00 | 00:00:00 | 00:00:00 | |
| RDZBGO | 2026-08-30 13:03:46 | 41.99039 | 9.24610 | 221° | 42km/h | 34077m | 4.4m/s | 0°C | 0% | 0hPa | 0V | 00:00:00 | 00:00:00 | 00:00:00 | |
| RDZBGO | 2026-08-30 13:03:25 | 41.99084 | 9.24716 | 222° | 80km/h | 33942m | 3.4m/s | 0°C | 0% | 0hPa | 0V | 00:00:00 | 00:00:00 | 00:00:00 | |
| RDZBGO | 2026-08-30 13:03:05 | 41.99147 | 9.24872 | 231° | 49km/h | 33828m | 11.6m/s | 0°C | 0% | 0hPa | 0V | 00:00:00 | 00:00:00 | 00:00:00 | |
| RDZBGO | 2026-08-30 13:02:44 | 41.99240 | 9.24995 | 233° | 33km/h | 33710m | 7.5m/s | 0°C | 0% | 0hPa | 0V | 00:00:00 | 00:00:00 | 00:00:00 | |
| RDZBGO | 2026-08-30 13:02:24 | 41.99312 | 9.25056 | 224° | 51km/h | 33592m | 7.2m/s | 0°C | 0% | 0hPa | 0V | 00:00:00 | 00:00:00 | 00:00:00 | |
| RDZBGO | 2026-08-30 13:02:04 | 41.99387 | 9.25130 | 239° | 46km/h | 33479m | 5.0m/s | 0°C | 0% | 0hPa | 0V | 00:00:00 | 00:00:00 | 00:00:00 | |
| RDZBGO | 2026-08-30 13:01:43 | 41.99466 | 9.25194 | 232° | 26km/h | 33366m | 5.6m/s | 0°C | 0% | 0hPa | 0V | 00:00:00 | 00:00:00 | 00:00:00 | |
| RDZBGO | 2026-08-30 13:01:22 | 41.99553 | 9.25206 | 57° | 22km/h | 33239m | 5.7m/s | 0°C | 0% | 0hPa | 0V | 00:00:00 | 00:00:00 | 00:00:00 | |
| RDZBGO | 2026-08-30 13:01:01 | 41.99644 | 9.25200 | 311° | 22km/h | 33123m | 5.9m/s | 0°C | 0% | 0hPa | 0V | 00:00:00 | 00:00:00 | 00:00:00 | |
| RDZBGO | 2026-08-30 13:00:40 | 41.99700 | 9.25212 | 242° | 38km/h | 32999m | 7.1m/s | 0°C | 0% | 0hPa | 0V | 00:00:00 | 00:00:00 | 00:00:00 | |
| RDZBGO | 2026-08-30 13:00:19 | 41.99735 | 9.25240 | 336° | 18km/h | 32877m | 8.0m/s | 0°C | 0% | 0hPa | 0V | 00:00:00 | 00:00:00 | 00:00:00 | |
| RDZBGO | 2026-08-30 12:59:58 | 41.99739 | 9.25270 | 4° | 47km/h | 32754m | 10.1m/s | 0°C | 0% | 0hPa | 0V | 00:00:00 | 00:00:00 | 00:00:00 | |
| IW2NTF | 2026-08-30 12:59:41 | 41.99631 | 9.25324 | 275° | 42km/h | 32613m | 7m/s | 0°C | 0% | 0hPa | 0V | 00:00:00 | 00:00:00 | 00:00:00 | |
| RDZBGO | 2026-08-30 12:59:38 | 41.99659 | 9.25292 | 355° | 58km/h | 32633m | 4.6m/s | 0°C | 0% | 0hPa | 0V | 00:00:00 | 00:00:00 | 00:00:00 | |
| RDZBGO | 2026-08-30 12:59:17 | 41.99516 | 9.25375 | 290° | 51km/h | 32513m | 5.6m/s | 0°C | 0% | 0hPa | 0V | 00:00:00 | 00:00:00 | 00:00:00 | |
| RDZBGO | 2026-08-30 12:58:55 | 41.99440 | 9.25477 | 233° | 40km/h | 32381m | -0.2m/s | 0°C | 0% | 0hPa | 0V | 00:00:00 | 00:00:00 | 00:00:00 | |
| IW2NTF | 2026-08-30 12:58:41 | 41.99409 | 9.25592 | 223° | 40km/h | 32253m | 5.4m/s | 0°C | 0% | 0hPa | 0V | 00:00:00 | 00:00:00 | 00:00:00 | |
| RDZBGO | 2026-08-30 12:58:35 | 41.99409 | 9.25592 | 224° | 40km/h | 32253m | 5.4m/s | 0°C | 0% | 0hPa | 0V | 00:00:00 | 00:00:00 | 00:00:00 | |
| RDZBGO | 2026-08-30 12:58:14 | 41.99425 | 9.25616 | 46° | 7km/h | 32131m | 7.2m/s | 0°C | 0% | 0hPa | 0V | 00:00:00 | 00:00:00 | 00:00:00 | |
| RDZBGO | 2026-08-30 12:57:53 | 41.99373 | 9.25630 | 137° | 11km/h | 32009m | 5.8m/s | 0°C | 0% | 0hPa | 0V | 00:00:00 | 00:00:00 | 00:00:00 | |
| RDZBGO | 2026-08-30 12:57:33 | 41.99341 | 9.25665 | 121° | 5km/h | 31885m | 4.5m/s | 0°C | 0% | 0hPa | 0V | 00:00:00 | 00:00:00 | 00:00:00 | |
| IW2NTF | 2026-08-30 12:57:24 | 41.99333 | 9.25703 | 298° | 18km/h | 31808m | 6.4m/s | 0°C | 0% | 0hPa | 0V | 00:00:00 | 00:00:00 | 00:00:00 | |
| IW2NTF | 2026-08-30 12:57:14 | 41.99323 | 9.25733 | 223° | 15km/h | 31745m | 4.9m/s | 0°C | 0% | 0hPa | 0V | 00:00:00 | 00:00:00 | 00:00:00 | |
| RDZBGO | 2026-08-30 12:57:11 | 41.99322 | 9.25721 | 281° | 20km/h | 31756m | 5.7m/s | 0°C | 0% | 0hPa | 0V | 00:00:00 | 00:00:00 | 00:00:00 | |
| IW2NTF | 2026-08-30 12:56:51 | 41.99382 | 9.25713 | 114° | 18km/h | 31599m | 6.1m/s | 0°C | 0% | 0hPa | 0V | 00:00:00 | 00:00:00 | 00:00:00 | |
| RDZBGO | 2026-08-30 12:56:51 | 41.99367 | 9.25732 | 316° | 24km/h | 31636m | 4.2m/s | 0°C | 0% | 0hPa | 0V | 00:00:00 | 00:00:00 | 00:00:00 | |
| IW2NTF | 2026-08-30 12:56:41 | 41.99388 | 9.25687 | 98° | 9km/h | 31535m | 5.7m/s | 0°C | 0% | 0hPa | 0V | 00:00:00 | 00:00:00 | 00:00:00 | |
| RDZBGO | 2026-08-30 12:56:30 | 41.99405 | 9.25660 | 124° | 18km/h | 31507m | 3.7m/s | 0°C | 0% | 0hPa | 0V | 00:00:00 | 00:00:00 | 00:00:00 | |
| IW2NTF | 2026-08-30 12:56:13 | 41.99373 | 9.25562 | 36° | 24km/h | 31369m | 6.2m/s | 0°C | 0% | 0hPa | 0V | 00:00:00 | 00:00:00 | 00:00:00 | |
| RDZBGO | 2026-08-30 12:56:09 | 41.99378 | 9.25566 | 23° | 20km/h | 31375m | 5.2m/s | 0°C | 0% | 0hPa | 0V | 00:00:00 | 00:00:00 | 00:00:00 | |
| RDZBGO | 2026-08-30 12:55:49 | 41.99278 | 9.25442 | 99° | 37km/h | 31257m | 7.1m/s | 0°C | 0% | 0hPa | 0V | 00:00:00 | 00:00:00 | 00:00:00 | |
| RDZBGO | 2026-08-30 12:55:29 | 41.99112 | 9.25344 | 66° | 31km/h | 31142m | 7.0m/s | 0°C | 0% | 0hPa | 0V | 00:00:00 | 00:00:00 | 00:00:00 | |
| IW2NTF | 2026-08-30 12:55:24 | 41.99060 | 9.25326 | 359° | 62km/h | 31106m | 4.7m/s | 0°C | 0% | 0hPa | 0V | 00:00:00 | 00:00:00 | 00:00:00 | |
| IW2NTF | 2026-08-30 12:55:14 | 41.98889 | 9.25299 | 13° | 68km/h | 31020m | 4.9m/s | 0°C | 0% | 0hPa | 0V | 00:00:00 | 00:00:00 | 00:00:00 | |
| RDZBGO | 2026-08-30 12:55:09 | 41.98903 | 9.25305 | 24° | 57km/h | 31026m | 5.5m/s | 0°C | 0% | 0hPa | 0V | 00:00:00 | 00:00:00 | 00:00:00 | |
| RDZBGO | 2026-08-30 12:54:48 | 41.98725 | 9.25269 | 11° | 55km/h | 30913m | 3.6m/s | 0°C | 0% | 0hPa | 0V | 00:00:00 | 00:00:00 | 00:00:00 | |
| RDZBGO | 2026-08-30 12:54:28 | 41.98644 | 9.25246 | 137° | 15km/h | 30802m | 3.4m/s | 0°C | 0% | 0hPa | 0V | 00:00:00 | 00:00:00 | 00:00:00 | |
| RDZBGO | 2026-08-30 12:54:08 | 41.98620 | 9.25229 | 161° | 33km/h | 30692m | 6.2m/s | 0°C | 0% | 0hPa | 0V | 00:00:00 | 00:00:00 | 00:00:00 | |
| RDZBGO | 2026-08-30 12:53:47 | 41.98651 | 9.25139 | 76° | 24km/h | 30572m | 3.8m/s | 0°C | 0% | 0hPa | 0V | 00:00:00 | 00:00:00 | 00:00:00 | |
| RDZBGO | 2026-08-30 12:53:05 | 41.98595 | 9.24953 | 17° | 27km/h | 30336m | 6.9m/s | 0°C | 0% | 0hPa | 0V | 00:00:00 | 00:00:00 | 00:00:00 | |
| IW2NTF | 2026-08-30 12:52:54 | 41.98539 | 9.24896 | 85° | 15km/h | 30253m | 3.4m/s | 0°C | 0% | 0hPa | 0V | 00:00:00 | 00:00:00 | 00:00:00 | |
| RDZBGO | 2026-08-30 12:52:44 | 41.98492 | 9.24852 | 354° | 18km/h | 30208m | 5.8m/s | 0°C | 0% | 0hPa | 0V | 00:00:00 | 00:00:00 | 00:00:00 | |
| IW2NTF | 2026-08-30 12:52:24 | 41.98339 | 9.24734 | 1° | 53km/h | 30087m | 1.9m/s | 0°C | 0% | 0hPa | 0V | 00:00:00 | 00:00:00 | 00:00:00 | |
| RDZBGO | 2026-08-30 12:52:23 | 41.98339 | 9.24734 | 3° | 53km/h | 30088m | 1.9m/s | 0°C | 0% | 0hPa | 0V | 00:00:00 | 00:00:00 | 00:00:00 | |
| RDZBGO | 2026-08-30 12:52:03 | 41.98125 | 9.24672 | 354° | 55km/h | 29963m | 7.1m/s | 0°C | 0% | 0hPa | 0V | 00:00:00 | 00:00:00 | 00:00:00 | |
| RDZBGO | 2026-08-30 12:51:43 | 41.97870 | 9.24637 | 338° | 46km/h | 29838m | 4.8m/s | 0°C | 0% | 0hPa | 0V | 00:00:00 | 00:00:00 | 00:00:00 | |
| RDZBGO | 2026-08-30 12:51:22 | 41.97657 | 9.24639 | 351° | 46km/h | 29713m | 4.6m/s | 0°C | 0% | 0hPa | 0V | 00:00:00 | 00:00:00 | 00:00:00 | |
| IW2NTF | 2026-08-30 12:51:14 | 41.97577 | 9.24659 | 326° | 24km/h | 29651m | 7.8m/s | 0°C | 0% | 0hPa | 0V | 00:00:00 | 00:00:00 | 00:00:00 | |
| IW2NTF | 2026-08-30 12:51:03 | 41.97505 | 9.24687 | 348° | 38km/h | 29574m | 7.9m/s | 0°C | 0% | 0hPa | 0V | 00:00:00 | 00:00:00 | 00:00:00 | |
| RDZBGO | 2026-08-30 12:51:01 | 41.97518 | 9.24679 | 311° | 16km/h | 29586m | 4.6m/s | 0°C | 0% | 0hPa | 0V | 00:00:00 | 00:00:00 | 00:00:00 | |
| RDZBGO | 2026-08-30 12:50:40 | 41.97401 | 9.24735 | 319° | 29km/h | 29460m | 5.5m/s | 0°C | 0% | 0hPa | 0V | 00:00:00 | 00:00:00 | 00:00:00 | |
| IW2NTF | 2026-08-30 12:50:27 | 41.97327 | 9.24793 | 294° | 22km/h | 29361m | 6.3m/s | 0°C | 0% | 0hPa | 0V | 00:00:00 | 00:00:00 | 00:00:00 | |
| RDZBGO | 2026-08-30 12:50:19 | 41.97338 | 9.24797 | 148° | 27km/h | 29341m | 4.9m/s | 0°C | 0% | 0hPa | 0V | 00:00:00 | 00:00:00 | 00:00:00 | |
| IW2NTF | 2026-08-30 12:50:15 | 41.97323 | 9.24813 | 194° | 16km/h | 29294m | 5.5m/s | 0°C | 0% | 0hPa | 0V | 00:00:00 | 00:00:00 | 00:00:00 | |
| RDZBGO | 2026-08-30 12:49:57 | 41.97300 | 9.24784 | 65° | 2km/h | 29211m | 5.1m/s | 0°C | 0% | 0hPa | 0V | 00:00:00 | 00:00:00 | 00:00:00 | |
| IW2NTF | 2026-08-30 12:49:53 | 41.97285 | 9.24771 | 205° | 13km/h | 29161m | 3.1m/s | 0°C | 0% | 0hPa | 0V | 00:00:00 | 00:00:00 | 00:00:00 | |
| RDZBGO | 2026-08-30 12:49:37 | 41.97255 | 9.24759 | 40° | 9km/h | 29101m | 5.4m/s | 0°C | 0% | 0hPa | 0V | 00:00:00 | 00:00:00 | 00:00:00 | |
| RDZBGO | 2026-08-30 12:49:17 | 41.97104 | 9.24742 | 29° | 29km/h | 28989m | 5.0m/s | 0°C | 0% | 0hPa | 0V | 00:00:00 | 00:00:00 | 00:00:00 | |
| RDZBGO | 2026-08-30 12:48:56 | 41.96931 | 9.24827 | 259° | 33km/h | 28876m | 6.2m/s | 0°C | 0% | 0hPa | 0V | 00:00:00 | 00:00:00 | 00:00:00 | |
| IW2NTF | 2026-08-30 12:48:47 | 41.96857 | 9.24925 | 306° | 27km/h | 28802m | 6.5m/s | 0°C | 0% | 0hPa | 0V | 00:00:00 | 00:00:00 | 00:00:00 | |
| RDZBGO | 2026-08-30 12:48:34 | 41.96805 | 9.24994 | 307° | 16km/h | 28743m | 4.7m/s | 0°C | 0% | 0hPa | 0V | 00:00:00 | 00:00:00 | 00:00:00 | |
| IW2NTF | 2026-08-30 12:48:25 | 41.96777 | 9.25056 | 243° | 20km/h | 28685m | 5.3m/s | 0°C | 0% | 0hPa | 0V | 00:00:00 | 00:00:00 | 00:00:00 | |
| RDZBGO | 2026-08-30 12:48:14 | 41.96766 | 9.25111 | 285° | 11km/h | 28630m | 6.3m/s | 0°C | 0% | 0hPa | 0V | 00:00:00 | 00:00:00 | 00:00:00 | |
| IW2NTF | 2026-08-30 12:48:03 | 41.96780 | 9.25151 | 26° | 4km/h | 28533m | 5.9m/s | 0°C | 0% | 0hPa | 0V | 00:00:00 | 00:00:00 | 00:00:00 | |
| RDZBGO | 2026-08-30 12:47:52 | 41.96781 | 9.25179 | 260° | 9km/h | 28498m | 7.2m/s | 0°C | 0% | 0hPa | 0V | 00:00:00 | 00:00:00 | 00:00:00 | |
| RDZBGO | 2026-08-30 12:47:31 | 41.96771 | 9.25278 | 217° | 13km/h | 28374m | 5.3m/s | 0°C | 0% | 0hPa | 0V | 00:00:00 | 00:00:00 | 00:00:00 | |
| IW2NTF | 2026-08-30 12:47:21 | 41.96751 | 9.25345 | 310° | 9km/h | 28305m | 5.2m/s | 0°C | 0% | 0hPa | 0V | 00:00:00 | 00:00:00 | 00:00:00 | |
| IW2NTF | 2026-08-30 12:47:15 | 41.96750 | 9.25405 | 173° | 11km/h | 28244m | 4.8m/s | 0°C | 0% | 0hPa | 0V | 00:00:00 | 00:00:00 | 00:00:00 | |
| RDZBGO | 2026-08-30 12:47:10 | 41.96746 | 9.25404 | 213° | 15km/h | 28251m | 7.2m/s | 0°C | 0% | 0hPa | 0V | 00:00:00 | 00:00:00 | 00:00:00 | |
| IW2NTF | 2026-08-30 12:46:57 | 41.96769 | 9.25464 | 227° | 22km/h | 28150m | 4.4m/s | 0°C | 0% | 0hPa | 0V | 00:00:00 | 00:00:00 | 00:00:00 | |
| RDZBGO | 2026-08-30 12:46:50 | 41.96770 | 9.25469 | 26° | 13km/h | 28137m | 8.2m/s | 0°C | 0% | 0hPa | 0V | 00:00:00 | 00:00:00 | 00:00:00 | |
| IW2NTF | 2026-08-30 12:46:46 | 41.96783 | 9.25486 | 262° | 13km/h | 28092m | 5.2m/s | 0°C | 0% | 0hPa | 0V | 00:00:00 | 00:00:00 | 00:00:00 | |
| IW2NTF | 2026-08-30 12:46:33 | 41.96796 | 9.25517 | 288° | 22km/h | 28038m | 4.3m/s | 0°C | 0% | 0hPa | 0V | 00:00:00 | 00:00:00 | 00:00:00 | |
| RDZBGO | 2026-08-30 12:46:29 | 41.96807 | 9.25541 | 205° | 31km/h | 28014m | 5.4m/s | 0°C | 0% | 0hPa | 0V | 00:00:00 | 00:00:00 | 00:00:00 | |
| IW2NTF | 2026-08-30 12:46:21 | 41.96840 | 9.25583 | 150° | 9km/h | 27951m | 5.4m/s | 0°C | 0% | 0hPa | 0V | 00:00:00 | 00:00:00 | 00:00:00 | |
| RDZBGO | 2026-08-30 12:46:08 | 41.96873 | 9.25603 | 165° | 38km/h | 27894m | 4.8m/s | 0°C | 0% | 0hPa | 0V | 00:00:00 | 00:00:00 | 00:00:00 | |
| RDZBGO | 2026-08-30 12:45:48 | 41.96939 | 9.25560 | 117° | 29km/h | 27782m | 6.0m/s | 0°C | 0% | 0hPa | 0V | 00:00:00 | 00:00:00 | 00:00:00 | |
| IW2NTF | 2026-08-30 12:45:44 | 41.96946 | 9.25522 | 114° | 7km/h | 27733m | 6.3m/s | 0°C | 0% | 0hPa | 0V | 00:00:00 | 00:00:00 | 00:00:00 | |
| RDZBGO | 2026-08-30 12:45:27 | 41.96940 | 9.25478 | 50° | 16km/h | 27667m | 6.5m/s | 0°C | 0% | 0hPa | 0V | 00:00:00 | 00:00:00 | 00:00:00 | |
| IW2NTF | 2026-08-30 12:45:21 | 41.96890 | 9.25438 | 51° | 33km/h | 27601m | 6m/s | 0°C | 0% | 0hPa | 0V | 00:00:00 | 00:00:00 | 00:00:00 | |
| RDZBGO | 2026-08-30 12:45:06 | 41.96859 | 9.25425 | 54° | 15km/h | 27553m | 6.3m/s | 0°C | 0% | 0hPa | 0V | 00:00:00 | 00:00:00 | 00:00:00 | |
| RDZBGO | 2026-08-30 12:44:46 | 41.96784 | 9.25440 | 299° | 26km/h | 27450m | 7.3m/s | 0°C | 0% | 0hPa | 0V | 00:00:00 | 00:00:00 | 00:00:00 | |
| RDZBGO | 2026-08-30 12:44:25 | 41.96741 | 9.25533 | 246° | 11km/h | 27334m | 6.3m/s | 0°C | 0% | 0hPa | 0V | 00:00:00 | 00:00:00 | 00:00:00 | |
| IW2NTF | 2026-08-30 12:44:05 | 41.96751 | 9.25588 | 19° | 7km/h | 27197m | 4m/s | 0°C | 0% | 0hPa | 0V | 00:00:00 | 00:00:00 | 00:00:00 | |
| RDZBGO | 2026-08-30 12:44:04 | 41.96733 | 9.25586 | 218° | 31km/h | 27223m | 5.0m/s | 0°C | 0% | 0hPa | 0V | 00:00:00 | 00:00:00 | 00:00:00 | |
| RDZBGO | 2026-08-30 12:43:44 | 41.96780 | 9.25601 | 148° | 26km/h | 27115m | 5.2m/s | 0°C | 0% | 0hPa | 0V | 00:00:00 | 00:00:00 | 00:00:00 | |
| RDZBGO | 2026-08-30 12:43:23 | 41.96817 | 9.25590 | 222° | 15km/h | 27003m | 3.4m/s | 0°C | 0% | 0hPa | 0V | 00:00:00 | 00:00:00 | 00:00:00 | |
| RDZBGO | 2026-08-30 12:43:00 | 41.96840 | 9.25497 | 149° | 20km/h | 26883m | 6.5m/s | 0°C | 0% | 0hPa | 0V | 00:00:00 | 00:00:00 | 00:00:00 | |
| RDZBGO | 2026-08-30 12:42:39 | 41.96810 | 9.25486 | 297° | 29km/h | 26761m | 4.4m/s | 0°C | 0% | 0hPa | 0V | 00:00:00 | 00:00:00 | 00:00:00 | |
| IW2NTF | 2026-08-30 12:42:38 | 41.96782 | 9.25491 | 335° | 27km/h | 26722m | 4.4m/s | 0°C | 0% | 0hPa | 0V | 00:00:00 | 00:00:00 | 00:00:00 | |
| IW2NTF | 2026-08-30 12:42:20 | 41.96734 | 9.25574 | 315° | 27km/h | 26627m | 4.7m/s | 0°C | 0% | 0hPa | 0V | 00:00:00 | 00:00:00 | 00:00:00 | |
| RDZBGO | 2026-08-30 12:42:19 | 41.96748 | 9.25556 | 246° | 9km/h | 26649m | 5.3m/s | 0°C | 0% | 0hPa | 0V | 00:00:00 | 00:00:00 | 00:00:00 | |
| IW2NTF | 2026-08-30 12:42:07 | 41.96719 | 9.25630 | 282° | 29km/h | 26557m | 6.2m/s | 0°C | 0% | 0hPa | 0V | 00:00:00 | 00:00:00 | 00:00:00 | |
| IW2NTF | 2026-08-30 12:41:50 | 41.96730 | 9.25679 | 191° | 15km/h | 26451m | 5.8m/s | 0°C | 0% | 0hPa | 0V | 00:00:00 | 00:00:00 | 00:00:00 | |
| RDZBGO | 2026-08-30 12:41:38 | 41.96731 | 9.25692 | 258° | 5km/h | 26420m | 5.9m/s | 0°C | 0% | 0hPa | 0V | 00:00:00 | 00:00:00 | 00:00:00 | |
| IW2NTF | 2026-08-30 12:41:32 | 41.96753 | 9.25696 | 200° | 11km/h | 26344m | 6.2m/s | 0°C | 0% | 0hPa | 0V | 00:00:00 | 00:00:00 | 00:00:00 | |
| RDZBGO | 2026-08-30 12:41:17 | 41.96763 | 9.25677 | 88° | 20km/h | 26303m | 5.9m/s | 0°C | 0% | 0hPa | 0V | 00:00:00 | 00:00:00 | 00:00:00 | |
| RDZBGO | 2026-08-30 12:40:56 | 41.96745 | 9.25616 | 44° | 35km/h | 26179m | 4.1m/s | 0°C | 0% | 0hPa | 0V | 00:00:00 | 00:00:00 | 00:00:00 | |
| IW2NTF | 2026-08-30 12:40:50 | 41.96708 | 9.25606 | 37° | 27km/h | 26130m | 5m/s | 0°C | 0% | 0hPa | 0V | 00:00:00 | 00:00:00 | 00:00:00 | |
| RDZBGO | 2026-08-30 12:40:36 | 41.96666 | 9.25611 | 355° | 5km/h | 26070m | 5.3m/s | 0°C | 0% | 0hPa | 0V | 00:00:00 | 00:00:00 | 00:00:00 | |
| RDZBGO | 2026-08-30 12:40:15 | 41.96599 | 9.25599 | 0° | 0km/h | 25949m | 4.4m/s | 0°C | 0% | 0hPa | 0V | 00:00:00 | 00:00:00 | 00:00:00 | |
| RDZBGO | 2026-08-30 12:39:55 | 41.96549 | 9.25596 | 123° | 2km/h | 25831m | 4.4m/s | 0°C | 0% | 0hPa | 0V | 00:00:00 | 00:00:00 | 00:00:00 | |
| IW2NTF | 2026-08-30 12:39:52 | 41.96536 | 9.25614 | 304° | 24km/h | 25804m | 3.9m/s | 0°C | 0% | 0hPa | 0V | 00:00:00 | 00:00:00 | 00:00:00 | |
| IW2NTF | 2026-08-30 12:39:41 | 41.96495 | 9.25657 | 353° | 27km/h | 25728m | 4.7m/s | 0°C | 0% | 0hPa | 0V | 00:00:00 | 00:00:00 | 00:00:00 | |
| RDZBGO | 2026-08-30 12:39:34 | 41.96482 | 9.25656 | 12° | 18km/h | 25720m | 5.9m/s | 0°C | 0% | 0hPa | 0V | 00:00:00 | 00:00:00 | 00:00:00 | |
| RDZBGO | 2026-08-30 12:39:14 | 41.96393 | 9.25696 | 351° | 40km/h | 25607m | 4.4m/s | 0°C | 0% | 0hPa | 0V | 00:00:00 | 00:00:00 | 00:00:00 | |
| IW2NTF | 2026-08-30 12:39:09 | 41.96359 | 9.25710 | 340° | 37km/h | 25559m | 4.2m/s | 0°C | 0% | 0hPa | 0V | 00:00:00 | 00:00:00 | 00:00:00 | |
| IW2NTF | 2026-08-30 12:39:02 | 41.96327 | 9.25746 | 293° | 15km/h | 25504m | 5.8m/s | 0°C | 0% | 0hPa | 0V | 00:00:00 | 00:00:00 | 00:00:00 | |
| RDZBGO | 2026-08-30 12:38:54 | 41.96326 | 9.25752 | 292° | 20km/h | 25499m | 5.1m/s | 0°C | 0% | 0hPa | 0V | 00:00:00 | 00:00:00 | 00:00:00 | |
| RDZBGO | 2026-08-30 12:38:33 | 41.96269 | 9.25795 | 278° | 11km/h | 25386m | 4.1m/s | 0°C | 0% | 0hPa | 0V | 00:00:00 | 00:00:00 | 00:00:00 | |
| RDZBGO | 2026-08-30 12:38:13 | 41.96190 | 9.25851 | 299° | 35km/h | 25275m | 4.5m/s | 0°C | 0% | 0hPa | 0V | 00:00:00 | 00:00:00 | 00:00:00 | |
| RDZBGO | 2026-08-30 12:37:52 | 41.96091 | 9.25957 | 329° | 18km/h | 25158m | 5.0m/s | 0°C | 0% | 0hPa | 0V | 00:00:00 | 00:00:00 | 00:00:00 | |
| RDZBGO | 2026-08-30 12:37:32 | 41.96028 | 9.26002 | 307° | 15km/h | 25045m | 5.7m/s | 0°C | 0% | 0hPa | 0V | 00:00:00 | 00:00:00 | 00:00:00 | |
| RDZBGO | 2026-08-30 12:37:12 | 41.95993 | 9.26092 | 358° | 11km/h | 24937m | 4.3m/s | 0°C | 0% | 0hPa | 0V | 00:00:00 | 00:00:00 | 00:00:00 | |
| RDZBGO | 2026-08-30 12:36:52 | 41.95956 | 9.26136 | 9° | 20km/h | 24830m | 6.7m/s | 0°C | 0% | 0hPa | 0V | 00:00:00 | 00:00:00 | 00:00:00 | |
| RDZBGO | 2026-08-30 12:36:31 | 41.95873 | 9.26188 | 342° | 24km/h | 24717m | 5.0m/s | 0°C | 0% | 0hPa | 0V | 00:00:00 | 00:00:00 | 00:00:00 | |
| RDZBGO | 2026-08-30 12:36:11 | 41.95792 | 9.26278 | 309° | 29km/h | 24615m | 5.2m/s | 0°C | 0% | 0hPa | 0V | 00:00:00 | 00:00:00 | 00:00:00 | |
| RDZBGO | 2026-08-30 12:35:51 | 41.95754 | 9.26363 | 286° | 22km/h | 24510m | 4.9m/s | 0°C | 0% | 0hPa | 0V | 00:00:00 | 00:00:00 | 00:00:00 | |
| RDZBGO | 2026-08-30 12:35:31 | 41.95778 | 9.26435 | 252° | 27km/h | 24403m | 4.2m/s | 0°C | 0% | 0hPa | 0V | 00:00:00 | 00:00:00 | 00:00:00 | |
| RDZBGO | 2026-08-30 12:35:10 | 41.95821 | 9.26481 | 252° | 20km/h | 24295m | 4.6m/s | 0°C | 0% | 0hPa | 0V | 00:00:00 | 00:00:00 | 00:00:00 | |
| RDZBGO | 2026-08-30 12:34:49 | 41.95787 | 9.26493 | 306° | 16km/h | 24183m | 3.7m/s | 0°C | 0% | 0hPa | 0V | 00:00:00 | 00:00:00 | 00:00:00 | |
| RDZBGO | 2026-08-30 12:34:29 | 41.95712 | 9.26523 | 351° | 31km/h | 24079m | 5.8m/s | 0°C | 0% | 0hPa | 0V | 00:00:00 | 00:00:00 | 00:00:00 | |
| RDZBGO | 2026-08-30 12:34:08 | 41.95607 | 9.26612 | 319° | 20km/h | 23971m | 5.4m/s | 0°C | 0% | 0hPa | 0V | 00:00:00 | 00:00:00 | 00:00:00 | |
| RDZBGO | 2026-08-30 12:33:48 | 41.95565 | 9.26680 | 295° | 9km/h | 23866m | 5.8m/s | 0°C | 0% | 0hPa | 0V | 00:00:00 | 00:00:00 | 00:00:00 | |
| RDZBGO | 2026-08-30 12:33:28 | 41.95522 | 9.26758 | 285° | 11km/h | 23762m | 5.9m/s | 0°C | 0% | 0hPa | 0V | 00:00:00 | 00:00:00 | 00:00:00 | |
| RDZBGO | 2026-08-30 12:33:09 | 41.95440 | 9.26865 | 329° | 22km/h | 23663m | 6.0m/s | 0°C | 0% | 0hPa | 0V | 00:00:00 | 00:00:00 | 00:00:00 | |
| RDZBGO | 2026-08-30 12:32:48 | 41.95362 | 9.26967 | 302° | 27km/h | 23564m | 4.1m/s | 0°C | 0% | 0hPa | 0V | 00:00:00 | 00:00:00 | 00:00:00 | |
| RDZBGO | 2026-08-30 12:32:27 | 41.95281 | 9.27083 | 270° | 22km/h | 23462m | 4.0m/s | 0°C | 0% | 0hPa | 0V | 00:00:00 | 00:00:00 | 00:00:00 | |
| RDZBGO | 2026-08-30 12:32:07 | 41.95219 | 9.27119 | 19° | 13km/h | 23364m | 5.4m/s | 0°C | 0% | 0hPa | 0V | 00:00:00 | 00:00:00 | 00:00:00 | |
| IW2NTF | 2026-08-30 12:31:55 | 41.95137 | 9.27158 | 0° | 16km/h | 23270m | 6.2m/s | 0°C | 0% | 0hPa | 0V | 00:00:00 | 00:00:00 | 00:00:00 | |
| RDZBGO | 2026-08-30 12:31:46 | 41.95129 | 9.27154 | 20° | 18km/h | 23260m | 4.1m/s | 0°C | 0% | 0hPa | 0V | 00:00:00 | 00:00:00 | 00:00:00 | |
| RDZBGO | 2026-08-30 12:31:25 | 41.95003 | 9.27162 | 44° | 13km/h | 23155m | 4.9m/s | 0°C | 0% | 0hPa | 0V | 00:00:00 | 00:00:00 | 00:00:00 | |
| IW2NTF | 2026-08-30 12:31:24 | 41.94950 | 9.27163 | 345° | 22km/h | 23116m | 4.2m/s | 0°C | 0% | 0hPa | 0V | 00:00:00 | 00:00:00 | 00:00:00 | |
| RDZBGO | 2026-08-30 12:31:04 | 41.94846 | 9.27165 | 346° | 33km/h | 23053m | 5.7m/s | 0°C | 0% | 0hPa | 0V | 00:00:00 | 00:00:00 | 00:00:00 | |
| RDZBGO | 2026-08-30 12:30:44 | 41.94685 | 9.27208 | 323° | 35km/h | 22953m | 6.8m/s | 0°C | 0% | 0hPa | 0V | 00:00:00 | 00:00:00 | 00:00:00 | |
| IW2NTF | 2026-08-30 12:30:41 | 41.94612 | 9.27256 | 339° | 42km/h | 22908m | 4.5m/s | 0°C | 0% | 0hPa | 0V | 00:00:00 | 00:00:00 | 00:00:00 | |
| IW2NTF | 2026-08-30 12:30:30 | 41.94534 | 9.27327 | 312° | 38km/h | 22851m | 4.6m/s | 0°C | 0% | 0hPa | 0V | 00:00:00 | 00:00:00 | 00:00:00 | |
| RDZBGO | 2026-08-30 12:30:24 | 41.94528 | 9.27336 | 312° | 37km/h | 22846m | 4.9m/s | 0°C | 0% | 0hPa | 0V | 00:00:00 | 00:00:00 | 00:00:00 | |
| IW2NTF | 2026-08-30 12:30:10 | 41.94455 | 9.27466 | 301° | 40km/h | 22777m | 5.5m/s | 0°C | 0% | 0hPa | 0V | 00:00:00 | 00:00:00 | 00:00:00 | |
| IW2NTF | 2026-08-30 12:29:54 | 41.94384 | 9.27672 | 295° | 29km/h | 22673m | 5.1m/s | 0°C | 0% | 0hPa | 0V | 00:00:00 | 00:00:00 | 00:00:00 | |
| RDZBGO | 2026-08-30 12:29:41 | 41.94364 | 9.27747 | 284° | 20km/h | 22639m | 4.6m/s | 0°C | 0% | 0hPa | 0V | 00:00:00 | 00:00:00 | 00:00:00 | |
| IW2NTF | 2026-08-30 12:29:36 | 41.94357 | 9.27821 | 310° | 24km/h | 22601m | 4m/s | 0°C | 0% | 0hPa | 0V | 00:00:00 | 00:00:00 | 00:00:00 | |
| IW2NTF | 2026-08-30 12:29:22 | 41.94348 | 9.27906 | 323° | 9km/h | 22534m | 5.8m/s | 0°C | 0% | 0hPa | 0V | 00:00:00 | 00:00:00 | 00:00:00 | |
| RDZBGO | 2026-08-30 12:29:21 | 41.94349 | 9.27903 | 295° | 13km/h | 22541m | 6.1m/s | 0°C | 0% | 0hPa | 0V | 00:00:00 | 00:00:00 | 00:00:00 | |
| IW2NTF | 2026-08-30 12:29:09 | 41.94339 | 9.27965 | 239° | 9km/h | 22455m | 6.5m/s | 0°C | 0% | 0hPa | 0V | 00:00:00 | 00:00:00 | 00:00:00 | |
| RDZBGO | 2026-08-30 12:28:39 | 41.94358 | 9.27984 | 75° | 4km/h | 22330m | 4.8m/s | 0°C | 0% | 0hPa | 0V | 00:00:00 | 00:00:00 | 00:00:00 | |
| IW2NTF | 2026-08-30 12:28:32 | 41.94373 | 9.27987 | 135° | 5km/h | 22259m | 6.1m/s | 0°C | 0% | 0hPa | 0V | 00:00:00 | 00:00:00 | 00:00:00 | |
| RDZBGO | 2026-08-30 12:28:18 | 41.94389 | 9.27982 | 190° | 15km/h | 22223m | 4.8m/s | 0°C | 0% | 0hPa | 0V | 00:00:00 | 00:00:00 | 00:00:00 | |
| IW2NTF | 2026-08-30 12:28:10 | 41.94408 | 9.27984 | 289° | 7km/h | 22171m | 4.7m/s | 0°C | 0% | 0hPa | 0V | 00:00:00 | 00:00:00 | 00:00:00 | |
| IW2NTF | 2026-08-30 12:28:01 | 41.94431 | 9.27980 | 160° | 2km/h | 22110m | 5.9m/s | 0°C | 0% | 0hPa | 0V | 00:00:00 | 00:00:00 | 00:00:00 | |
| RDZBGO | 2026-08-30 12:27:57 | 41.94430 | 9.27980 | 213° | 7km/h | 22116m | 5.5m/s | 0°C | 0% | 0hPa | 0V | 00:00:00 | 00:00:00 | 00:00:00 | |
| IW2NTF | 2026-08-30 12:27:49 | 41.94447 | 9.27987 | 197° | 11km/h | 22058m | 5.1m/s | 0°C | 0% | 0hPa | 0V | 00:00:00 | 00:00:00 | 00:00:00 | |
| RDZBGO | 2026-08-30 12:27:36 | 41.94462 | 9.28010 | 261° | 13km/h | 22010m | 4.9m/s | 0°C | 0% | 0hPa | 0V | 00:00:00 | 00:00:00 | 00:00:00 | |
| IW2NTF | 2026-08-30 12:27:35 | 41.94469 | 9.28028 | 253° | 11km/h | 21985m | 6.1m/s | 0°C | 0% | 0hPa | 0V | 00:00:00 | 00:00:00 | 00:00:00 | |
| IW2NTF | 2026-08-30 12:27:20 | 41.94492 | 9.28100 | 223° | 4km/h | 21899m | 4.2m/s | 0°C | 0% | 0hPa | 0V | 00:00:00 | 00:00:00 | 00:00:00 | |
| RDZBGO | 2026-08-30 12:27:16 | 41.94490 | 9.28095 | 245° | 13km/h | 21909m | 5.3m/s | 0°C | 0% | 0hPa | 0V | 00:00:00 | 00:00:00 | 00:00:00 | |
| RDZBGO | 2026-08-30 12:26:56 | 41.94490 | 9.28092 | 34° | 20km/h | 21808m | 4.9m/s | 0°C | 0% | 0hPa | 0V | 00:00:00 | 00:00:00 | 00:00:00 | |
| RDZBGO | 2026-08-30 12:26:35 | 41.94438 | 9.27967 | 45° | 29km/h | 21705m | 5.2m/s | 0°C | 0% | 0hPa | 0V | 00:00:00 | 00:00:00 | 00:00:00 | |
| IW2NTF | 2026-08-30 12:26:33 | 41.94421 | 9.27951 | 34° | 22km/h | 21691m | 5.9m/s | 0°C | 0% | 0hPa | 0V | 00:00:00 | 00:00:00 | 00:00:00 | |
| IW2NTF | 2026-08-30 12:26:28 | 41.94381 | 9.27904 | 27° | 26km/h | 21640m | 4.7m/s | 0°C | 0% | 0hPa | 0V | 00:00:00 | 00:00:00 | 00:00:00 | |
| RDZBGO | 2026-08-30 12:26:14 | 41.94350 | 9.27876 | 26° | 22km/h | 21602m | 4.8m/s | 0°C | 0% | 0hPa | 0V | 00:00:00 | 00:00:00 | 00:00:00 | |
| RDZBGO | 2026-08-30 12:25:54 | 41.94259 | 9.27851 | 346° | 18km/h | 21501m | 4.9m/s | 0°C | 0% | 0hPa | 0V | 00:00:00 | 00:00:00 | 00:00:00 | |
| RDZBGO | 2026-08-30 12:25:34 | 41.94180 | 9.27891 | 320° | 16km/h | 21402m | 4.1m/s | 0°C | 0% | 0hPa | 0V | 00:00:00 | 00:00:00 | 00:00:00 | |
| RDZBGO | 2026-08-30 12:25:13 | 41.94107 | 9.27981 | 312° | 26km/h | 21296m | 5.5m/s | 0°C | 0% | 0hPa | 0V | 00:00:00 | 00:00:00 | 00:00:00 | |
| RDZBGO | 2026-08-30 12:24:53 | 41.94068 | 9.28117 | 296° | 11km/h | 21197m | 4.3m/s | 0°C | 0% | 0hPa | 0V | 00:00:00 | 00:00:00 | 00:00:00 | |
| RDZBGO | 2026-08-30 12:24:32 | 41.94079 | 9.28267 | 274° | 20km/h | 21094m | 4.4m/s | 0°C | 0% | 0hPa | 0V | 00:00:00 | 00:00:00 | 00:00:00 | |
| RDZBGO | 2026-08-30 12:24:11 | 41.94079 | 9.28361 | 289° | 11km/h | 20992m | 5.4m/s | 0°C | 0% | 0hPa | 0V | 00:00:00 | 00:00:00 | 00:00:00 | |
| RDZBGO | 2026-08-30 12:23:51 | 41.94035 | 9.28412 | 289° | 18km/h | 20894m | 3.3m/s | 0°C | 0% | 0hPa | 0V | 00:00:00 | 00:00:00 | 00:00:00 | |
| RDZBGO | 2026-08-30 12:23:31 | 41.93947 | 9.28512 | 292° | 13km/h | 20801m | 3.4m/s | 0°C | 0% | 0hPa | 0V | 00:00:00 | 00:00:00 | 00:00:00 | |
| RDZBGO | 2026-08-30 12:23:11 | 41.93877 | 9.28617 | 289° | 22km/h | 20708m | 5.3m/s | 0°C | 0% | 0hPa | 0V | 00:00:00 | 00:00:00 | 00:00:00 | |
| RDZBGO | 2026-08-30 12:22:50 | 41.93822 | 9.28747 | 314° | 24km/h | 20611m | 3.8m/s | 0°C | 0% | 0hPa | 0V | 00:00:00 | 00:00:00 | 00:00:00 | |
| RDZBGO | 2026-08-30 12:22:30 | 41.93755 | 9.28796 | 328° | 20km/h | 20516m | 5.1m/s | 0°C | 0% | 0hPa | 0V | 00:00:00 | 00:00:00 | 00:00:00 | |
| RDZBGO | 2026-08-30 12:22:09 | 41.93644 | 9.28840 | 339° | 29km/h | 20413m | 4.5m/s | 0°C | 0% | 0hPa | 0V | 00:00:00 | 00:00:00 | 00:00:00 | |
| RDZBGO | 2026-08-30 12:21:49 | 41.93534 | 9.28935 | 295° | 26km/h | 20320m | 6.4m/s | 0°C | 0% | 0hPa | 0V | 00:00:00 | 00:00:00 | 00:00:00 | |
| RDZBGO | 2026-08-30 12:21:28 | 41.93480 | 9.29092 | 273° | 31km/h | 20221m | 5.2m/s | 0°C | 0% | 0hPa | 0V | 00:00:00 | 00:00:00 | 00:00:00 | |
| RDZBGO | 2026-08-30 12:21:08 | 41.93456 | 9.29233 | 270° | 24km/h | 20129m | 4.4m/s | 0°C | 0% | 0hPa | 0V | 00:00:00 | 00:00:00 | 00:00:00 | |
| RDZBGO | 2026-08-30 12:20:47 | 41.93411 | 9.29317 | 329° | 20km/h | 20029m | 4.2m/s | 0°C | 0% | 0hPa | 0V | 00:00:00 | 00:00:00 | 00:00:00 | |
| RDZBGO | 2026-08-30 12:20:27 | 41.93344 | 9.29364 | 313° | 18km/h | 19930m | 4.6m/s | 0°C | 0% | 0hPa | 0V | 00:00:00 | 00:00:00 | 00:00:00 | |
| RDZBGO | 2026-08-30 12:20:05 | 41.93268 | 9.29368 | 359° | 26km/h | 19833m | 3.9m/s | 0°C | 0% | 0hPa | 0V | 00:00:00 | 00:00:00 | 00:00:00 | |
| RDZBGO | 2026-08-30 12:19:44 | 41.93207 | 9.29390 | 348° | 9km/h | 19734m | 2.2m/s | 0°C | 0% | 0hPa | 0V | 00:00:00 | 00:00:00 | 00:00:00 | |
| RDZBGO | 2026-08-30 12:19:24 | 41.93170 | 9.29494 | 282° | 13km/h | 19640m | 3.9m/s | 0°C | 0% | 0hPa | 0V | 00:00:00 | 00:00:00 | 00:00:00 | |
| RDZBGO | 2026-08-30 12:19:03 | 41.93145 | 9.29593 | 275° | 22km/h | 19543m | 3.5m/s | 0°C | 0% | 0hPa | 0V | 00:00:00 | 00:00:00 | 00:00:00 | |
| RDZBGO | 2026-08-30 12:18:43 | 41.93140 | 9.29708 | 257° | 27km/h | 19450m | 2.5m/s | 0°C | 0% | 0hPa | 0V | 00:00:00 | 00:00:00 | 00:00:00 | |
| RDZBGO | 2026-08-30 12:18:22 | 41.93148 | 9.29809 | 283° | 4km/h | 19356m | 4.6m/s | 0°C | 0% | 0hPa | 0V | 00:00:00 | 00:00:00 | 00:00:00 | |
| RDZBGO | 2026-08-30 12:18:01 | 41.93150 | 9.29859 | 243° | 15km/h | 19262m | 4.6m/s | 0°C | 0% | 0hPa | 0V | 00:00:00 | 00:00:00 | 00:00:00 | |
| RDZBGO | 2026-08-30 12:17:40 | 41.93159 | 9.29910 | 241° | 7km/h | 19167m | 4.5m/s | 0°C | 0% | 0hPa | 0V | 00:00:00 | 00:00:00 | 00:00:00 | |
| RDZBGO | 2026-08-30 12:17:19 | 41.93201 | 9.29927 | 184° | 11km/h | 19075m | 5.6m/s | 0°C | 0% | 0hPa | 0V | 00:00:00 | 00:00:00 | 00:00:00 | |
| RDZBGO | 2026-08-30 12:16:59 | 41.93268 | 9.29904 | 138° | 26km/h | 18984m | 4.4m/s | 0°C | 0% | 0hPa | 0V | 00:00:00 | 00:00:00 | 00:00:00 | |
| RDZBGO | 2026-08-30 12:16:39 | 41.93363 | 9.29799 | 128° | 29km/h | 18892m | 5.0m/s | 0°C | 0% | 0hPa | 0V | 00:00:00 | 00:00:00 | 00:00:00 | |
| RDZBGO | 2026-08-30 12:16:18 | 41.93416 | 9.29597 | 104° | 38km/h | 18799m | 5.4m/s | 0°C | 0% | 0hPa | 0V | 00:00:00 | 00:00:00 | 00:00:00 | |
| RDZBGO | 2026-08-30 12:15:57 | 41.93397 | 9.29401 | 80° | 37km/h | 18710m | 4.9m/s | 0°C | 0% | 0hPa | 0V | 00:00:00 | 00:00:00 | 00:00:00 | |
| RDZBGO | 2026-08-30 12:15:37 | 41.93334 | 9.29210 | 54° | 31km/h | 18617m | 5.5m/s | 0°C | 0% | 0hPa | 0V | 00:00:00 | 00:00:00 | 00:00:00 | |
| RDZBGO | 2026-08-30 12:15:15 | 41.93261 | 9.29046 | 75° | 26km/h | 18517m | 5.8m/s | 0°C | 0% | 0hPa | 0V | 00:00:00 | 00:00:00 | 00:00:00 | |
| RDZBGO | 2026-08-30 12:14:54 | 41.93195 | 9.28930 | 27° | 18km/h | 18418m | 5.9m/s | 0°C | 0% | 0hPa | 0V | 00:00:00 | 00:00:00 | 00:00:00 | |
| RDZBGO | 2026-08-30 12:14:34 | 41.93085 | 9.28853 | 16° | 26km/h | 18326m | 4.1m/s | 0°C | 0% | 0hPa | 0V | 00:00:00 | 00:00:00 | 00:00:00 | |
| RDZBGO | 2026-08-30 12:14:12 | 41.92985 | 9.28800 | 42° | 18km/h | 18227m | 4.6m/s | 0°C | 0% | 0hPa | 0V | 00:00:00 | 00:00:00 | 00:00:00 | |
| RDZBGO | 2026-08-30 12:13:51 | 41.92887 | 9.28785 | 13° | 22km/h | 18132m | 3.8m/s | 0°C | 0% | 0hPa | 0V | 00:00:00 | 00:00:00 | 00:00:00 | |
| RDZBGO | 2026-08-30 12:13:31 | 41.92819 | 9.28753 | 29° | 20km/h | 18038m | 4.7m/s | 0°C | 0% | 0hPa | 0V | 00:00:00 | 00:00:00 | 00:00:00 | |
| RDZBGO | 2026-08-30 12:13:10 | 41.92777 | 9.28716 | 55° | 11km/h | 17952m | 4.9m/s | 0°C | 0% | 0hPa | 0V | 00:00:00 | 00:00:00 | 00:00:00 | |
| RDZBGO | 2026-08-30 12:12:49 | 41.92734 | 9.28618 | 53° | 26km/h | 17862m | 4.2m/s | 0°C | 0% | 0hPa | 0V | 00:00:00 | 00:00:00 | 00:00:00 | |
| RDZBGO | 2026-08-30 12:12:28 | 41.92714 | 9.28516 | 72° | 29km/h | 17773m | 4.2m/s | 0°C | 0% | 0hPa | 0V | 00:00:00 | 00:00:00 | 00:00:00 | |
| RDZBGO | 2026-08-30 12:12:08 | 41.92665 | 9.28403 | 86° | 27km/h | 17684m | 4.9m/s | 0°C | 0% | 0hPa | 0V | 00:00:00 | 00:00:00 | 00:00:00 | |
| RDZBGO | 2026-08-30 12:11:47 | 41.92579 | 9.28270 | 51° | 35km/h | 17574m | 9.6m/s | 0°C | 0% | 0hPa | 0V | 00:00:00 | 00:00:00 | 00:00:00 | |
| RDZBGO | 2026-08-30 12:11:26 | 41.92474 | 9.28172 | 95° | 33km/h | 17423m | 8.7m/s | 0°C | 0% | 0hPa | 0V | 00:00:00 | 00:00:00 | 00:00:00 | |
| RDZBGO | 2026-08-30 12:11:05 | 41.92434 | 9.28071 | 63° | 38km/h | 17287m | 6.7m/s | 0°C | 0% | 0hPa | 0V | 00:00:00 | 00:00:00 | 00:00:00 | |
| RDZBGO | 2026-08-30 12:10:44 | 41.92437 | 9.27902 | 95° | 26km/h | 17164m | 5.8m/s | 0°C | 0% | 0hPa | 0V | 00:00:00 | 00:00:00 | 00:00:00 | |
| RDZBGO | 2026-08-30 12:10:24 | 41.92443 | 9.27744 | 80° | 18km/h | 17060m | 5.8m/s | 0°C | 0% | 0hPa | 0V | 00:00:00 | 00:00:00 | 00:00:00 | |
| RDZBGO | 2026-08-30 12:10:03 | 41.92429 | 9.27589 | 83° | 24km/h | 16955m | 4.3m/s | 0°C | 0% | 0hPa | 0V | 00:00:00 | 00:00:00 | 00:00:00 | |
| RDZBGO | 2026-08-30 12:09:22 | 41.92437 | 9.27204 | 105° | 37km/h | 16767m | 4.1m/s | 0°C | 0% | 0hPa | 0V | 00:00:00 | 00:00:00 | 00:00:00 | |
| RDZBGO | 2026-08-30 12:09:01 | 41.92500 | 9.26890 | 105° | 49km/h | 16670m | 4.6m/s | 0°C | 0% | 0hPa | 0V | 00:00:00 | 00:00:00 | 00:00:00 | |
| RDZBGO | 2026-08-30 12:08:40 | 41.92545 | 9.26506 | 101° | 58km/h | 16573m | 5.7m/s | 0°C | 0% | 0hPa | 0V | 00:00:00 | 00:00:00 | 00:00:00 | |
| RDZBGO | 2026-08-30 12:08:19 | 41.92575 | 9.26058 | 89° | 60km/h | 16478m | 4.1m/s | 0°C | 0% | 0hPa | 0V | 00:00:00 | 00:00:00 | 00:00:00 | |
| RDZBGO | 2026-08-30 12:07:58 | 41.92577 | 9.25658 | 89° | 46km/h | 16387m | 4.2m/s | 0°C | 0% | 0hPa | 0V | 00:00:00 | 00:00:00 | 00:00:00 | |
| RDZBGO | 2026-08-30 12:07:38 | 41.92572 | 9.25309 | 91° | 55km/h | 16296m | 3.5m/s | 0°C | 0% | 0hPa | 0V | 00:00:00 | 00:00:00 | 00:00:00 | |
| RDZBGO | 2026-08-30 12:07:17 | 41.92558 | 9.24980 | 105° | 37km/h | 16205m | 4.0m/s | 0°C | 0% | 0hPa | 0V | 00:00:00 | 00:00:00 | 00:00:00 | |
| RDZBGO | 2026-08-30 12:06:56 | 41.92521 | 9.24694 | 73° | 40km/h | 16111m | 5.9m/s | 0°C | 0% | 0hPa | 0V | 00:00:00 | 00:00:00 | 00:00:00 | |
| RDZBGO | 2026-08-30 12:06:36 | 41.92478 | 9.24484 | 83° | 33km/h | 16021m | 3.7m/s | 0°C | 0% | 0hPa | 0V | 00:00:00 | 00:00:00 | 00:00:00 | |
| RDZBGO | 2026-08-30 12:06:16 | 41.92447 | 9.24329 | 82° | 24km/h | 15932m | 4.1m/s | 0°C | 0% | 0hPa | 0V | 00:00:00 | 00:00:00 | 00:00:00 | |
| RDZBGO | 2026-08-30 12:05:55 | 41.92426 | 9.24190 | 99° | 16km/h | 15838m | 4.9m/s | 0°C | 0% | 0hPa | 0V | 00:00:00 | 00:00:00 | 00:00:00 | |
| RDZBGO | 2026-08-30 12:05:34 | 41.92439 | 9.24047 | 91° | 18km/h | 15747m | 3.5m/s | 0°C | 0% | 0hPa | 0V | 00:00:00 | 00:00:00 | 00:00:00 | |
| RDZBGO | 2026-08-30 12:05:14 | 41.92457 | 9.23879 | 100° | 29km/h | 15662m | 6.0m/s | 0°C | 0% | 0hPa | 0V | 00:00:00 | 00:00:00 | 00:00:00 | |
| RDZBGO | 2026-08-30 12:04:53 | 41.92489 | 9.23651 | 121° | 31km/h | 15573m | 3.4m/s | 0°C | 0% | 0hPa | 0V | 00:00:00 | 00:00:00 | 00:00:00 | |
| RDZBGO | 2026-08-30 12:04:32 | 41.92554 | 9.23340 | 106° | 51km/h | 15485m | 3.4m/s | 0°C | 0% | 0hPa | 0V | 00:00:00 | 00:00:00 | 00:00:00 | |
| RDZBGO | 2026-08-30 12:04:12 | 41.92598 | 9.22987 | 97° | 57km/h | 15405m | 3.7m/s | 0°C | 0% | 0hPa | 0V | 00:00:00 | 00:00:00 | 00:00:00 | |
| RDZBGO | 2026-08-30 12:03:51 | 41.92629 | 9.22602 | 96° | 55km/h | 15315m | 5.5m/s | 0°C | 0% | 0hPa | 0V | 00:00:00 | 00:00:00 | 00:00:00 | |
| RDZBGO | 2026-08-30 12:03:30 | 41.92637 | 9.22184 | 98° | 60km/h | 15226m | 4.5m/s | 0°C | 0% | 0hPa | 0V | 00:00:00 | 00:00:00 | 00:00:00 | |
| RDZBGO | 2026-08-30 12:03:09 | 41.92614 | 9.21795 | 82° | 51km/h | 15129m | 5.3m/s | 0°C | 0% | 0hPa | 0V | 00:00:00 | 00:00:00 | 00:00:00 | |
| RDZBGO | 2026-08-30 12:02:50 | 41.92556 | 9.21449 | 77° | 57km/h | 15043m | 5.4m/s | 0°C | 0% | 0hPa | 0V | 00:00:00 | 00:00:00 | 00:00:00 | |
| RDZBGO | 2026-08-30 12:02:30 | 41.92466 | 9.21121 | 69° | 49km/h | 14953m | 3.3m/s | 0°C | 0% | 0hPa | 0V | 00:00:00 | 00:00:00 | 00:00:00 | |
| RDZBGO | 2026-08-30 12:02:08 | 41.92357 | 9.20779 | 71° | 55km/h | 14862m | 5.9m/s | 0°C | 0% | 0hPa | 0V | 00:00:00 | 00:00:00 | 00:00:00 | |
| RDZBGO | 2026-08-30 12:01:48 | 41.92278 | 9.20460 | 70° | 55km/h | 14773m | 5.5m/s | 0°C | 0% | 0hPa | 0V | 00:00:00 | 00:00:00 | 00:00:00 | |
| RDZBGO | 2026-08-30 12:01:27 | 41.92200 | 9.20092 | 75° | 58km/h | 14690m | 5.0m/s | 0°C | 0% | 0hPa | 0V | 00:00:00 | 00:00:00 | 00:00:00 | |
| RDZBGO | 2026-08-30 12:01:06 | 41.92127 | 9.19712 | 80° | 66km/h | 14592m | 4.3m/s | 0°C | 0% | 0hPa | 0V | 00:00:00 | 00:00:00 | 00:00:00 | |
| RDZBGO | 2026-08-30 12:00:45 | 41.92052 | 9.19319 | 81° | 53km/h | 14494m | 2.6m/s | 0°C | 0% | 0hPa | 0V | 00:00:00 | 00:00:00 | 00:00:00 | |
| RDZBGO | 2026-08-30 12:00:26 | 41.91990 | 9.18923 | 86° | 60km/h | 14380m | 2.5m/s | 0°C | 0% | 0hPa | 0V | 00:00:00 | 00:00:00 | 00:00:00 | |
| RDZBGO | 2026-08-30 12:00:05 | 41.91921 | 9.18493 | 76° | 64km/h | 14273m | 7.1m/s | 0°C | 0% | 0hPa | 0V | 00:00:00 | 00:00:00 | 00:00:00 | |
| RDZBGO | 2026-08-30 11:59:44 | 41.91880 | 9.18050 | 91° | 62km/h | 14162m | 7.7m/s | 0°C | 0% | 0hPa | 0V | 00:00:00 | 00:00:00 | 00:00:00 | |
| RDZBGO | 2026-08-30 11:59:23 | 41.91835 | 9.17602 | 75° | 64km/h | 14045m | 7.7m/s | 0°C | 0% | 0hPa | 0V | 00:00:00 | 00:00:00 | 00:00:00 | |
| RDZBGO | 2026-08-30 11:59:02 | 41.91798 | 9.17168 | 98° | 66km/h | 13938m | 6.5m/s | 0°C | 0% | 0hPa | 0V | 00:00:00 | 00:00:00 | 00:00:00 | |
| RDZBGO | 2026-08-30 11:58:41 | 41.91800 | 9.16732 | 101° | 66km/h | 13827m | 5.1m/s | 0°C | 0% | 0hPa | 0V | 00:00:00 | 00:00:00 | 00:00:00 | |
| RDZBGO | 2026-08-30 11:58:20 | 41.91862 | 9.16239 | 96° | 88km/h | 13709m | 7.2m/s | 0°C | 0% | 0hPa | 0V | 00:00:00 | 00:00:00 | 00:00:00 | |
| RDZBGO | 2026-08-30 11:57:58 | 41.91891 | 9.15708 | 91° | 78km/h | 13587m | 3.5m/s | 0°C | 0% | 0hPa | 0V | 00:00:00 | 00:00:00 | 00:00:00 | |
| RDZBGO | 2026-08-30 11:57:38 | 41.91919 | 9.15236 | 89° | 64km/h | 13474m | 3.4m/s | 0°C | 0% | 0hPa | 0V | 00:00:00 | 00:00:00 | 00:00:00 | |
| RDZBGO | 2026-08-30 11:57:17 | 41.91953 | 9.14720 | 96° | 78km/h | 13349m | 6.7m/s | 0°C | 0% | 0hPa | 0V | 00:00:00 | 00:00:00 | 00:00:00 | |
| RDZBGO | 2026-08-30 11:56:57 | 41.91998 | 9.14215 | 94° | 77km/h | 13238m | 8.9m/s | 0°C | 0% | 0hPa | 0V | 00:00:00 | 00:00:00 | 00:00:00 | |
| RDZBGO | 2026-08-30 11:56:36 | 41.92038 | 9.13714 | 98° | 69km/h | 13114m | 6.2m/s | 0°C | 0% | 0hPa | 0V | 00:00:00 | 00:00:00 | 00:00:00 | |
| RDZBGO | 2026-08-30 11:56:16 | 41.92084 | 9.13255 | 104° | 62km/h | 13004m | 3.7m/s | 0°C | 0% | 0hPa | 0V | 00:00:00 | 00:00:00 | 00:00:00 | |
| RDZBGO | 2026-08-30 11:55:55 | 41.92119 | 9.12800 | 85° | 66km/h | 12889m | 9.6m/s | 0°C | 0% | 0hPa | 0V | 00:00:00 | 00:00:00 | 00:00:00 | |
| RDZBGO | 2026-08-30 11:55:34 | 41.92130 | 9.12354 | 93° | 60km/h | 12784m | 3.4m/s | 0°C | 0% | 0hPa | 0V | 00:00:00 | 00:00:00 | 00:00:00 | |
| RDZBGO | 2026-08-30 11:55:14 | 41.92139 | 9.11915 | 89° | 77km/h | 12673m | 5.5m/s | 0°C | 0% | 0hPa | 0V | 00:00:00 | 00:00:00 | 00:00:00 | |
| RDZBGO | 2026-08-30 11:54:53 | 41.92160 | 9.11429 | 88° | 64km/h | 12566m | 5.7m/s | 0°C | 0% | 0hPa | 0V | 00:00:00 | 00:00:00 | 00:00:00 | |
| RDZBGO | 2026-08-30 11:54:32 | 41.92192 | 9.10928 | 96° | 66km/h | 12456m | 5.0m/s | 0°C | 0% | 0hPa | 0V | 00:00:00 | 00:00:00 | 00:00:00 | |
| RDZBGO | 2026-08-30 11:54:12 | 41.92246 | 9.10474 | 103° | 66km/h | 12348m | 2.3m/s | 0°C | 0% | 0hPa | 0V | 00:00:00 | 00:00:00 | 00:00:00 | |
| RDZBGO | 2026-08-30 11:53:51 | 41.92292 | 9.10006 | 101° | 69km/h | 12245m | 2.4m/s | 0°C | 0% | 0hPa | 0V | 00:00:00 | 00:00:00 | 00:00:00 | |
| RDZBGO | 2026-08-30 11:53:30 | 41.92364 | 9.09537 | 100° | 62km/h | 12144m | 6.6m/s | 0°C | 0% | 0hPa | 0V | 00:00:00 | 00:00:00 | 00:00:00 | |
| RDZBGO | 2026-08-30 11:53:10 | 41.92427 | 9.09104 | 111° | 73km/h | 12057m | 4.5m/s | 0°C | 0% | 0hPa | 0V | 00:00:00 | 00:00:00 | 00:00:00 | |
| RDZBGO | 2026-08-30 11:52:49 | 41.92519 | 9.08647 | 107° | 68km/h | 11975m | 4.7m/s | 0°C | 0% | 0hPa | 0V | 00:00:00 | 00:00:00 | 00:00:00 | |
| RDZBGO | 2026-08-30 11:52:29 | 41.92584 | 9.08227 | 102° | 68km/h | 11892m | 4.4m/s | 0°C | 0% | 0hPa | 0V | 00:00:00 | 00:00:00 | 00:00:00 | |
| RDZBGO | 2026-08-30 11:52:08 | 41.92662 | 9.07782 | 105° | 62km/h | 11807m | 4.1m/s | 0°C | 0% | 0hPa | 0V | 00:00:00 | 00:00:00 | 00:00:00 | |
| RDZBGO | 2026-08-30 11:51:47 | 41.92735 | 9.07347 | 104° | 64km/h | 11715m | 5.0m/s | 0°C | 0% | 0hPa | 0V | 00:00:00 | 00:00:00 | 00:00:00 | |
| RDZBGO | 2026-08-30 11:51:26 | 41.92797 | 9.06906 | 106° | 62km/h | 11624m | 4.8m/s | 0°C | 0% | 0hPa | 0V | 00:00:00 | 00:00:00 | 00:00:00 | |
| RDZBGO | 2026-08-30 11:51:06 | 41.92862 | 9.06499 | 99° | 62km/h | 11542m | 3.9m/s | 0°C | 0% | 0hPa | 0V | 00:00:00 | 00:00:00 | 00:00:00 | |
| RDZBGO | 2026-08-30 11:50:45 | 41.92930 | 9.06059 | 104° | 62km/h | 11450m | 5.1m/s | 0°C | 0% | 0hPa | 0V | 00:00:00 | 00:00:00 | 00:00:00 | |
| RDZBGO | 2026-08-30 11:50:24 | 41.92990 | 9.05630 | 104° | 64km/h | 11360m | 5.0m/s | 0°C | 0% | 0hPa | 0V | 00:00:00 | 00:00:00 | 00:00:00 | |
| RDZBGO | 2026-08-30 11:50:04 | 41.93043 | 9.05231 | 117° | 60km/h | 11273m | 5.2m/s | 0°C | 0% | 0hPa | 0V | 00:00:00 | 00:00:00 | 00:00:00 | |
| RDZBGO | 2026-08-30 11:49:23 | 41.93145 | 9.04396 | 89° | 68km/h | 11052m | 9.4m/s | 0°C | 0% | 0hPa | 0V | 00:00:00 | 00:00:00 | 00:00:00 | |
| RDZBGO | 2026-08-30 11:49:00 | 41.93212 | 9.03940 | 98° | 55km/h | 10927m | 6.1m/s | 0°C | 0% | 0hPa | 0V | 00:00:00 | 00:00:00 | 00:00:00 | |
| RDZBGO | 2026-08-30 11:48:36 | 41.93239 | 9.03499 | 91° | 47km/h | 10813m | 4.2m/s | 0°C | 0% | 0hPa | 0V | 00:00:00 | 00:00:00 | 00:00:00 | |
| RDZBGO | 2026-08-30 11:48:15 | 41.93246 | 9.03104 | 91° | 58km/h | 10713m | 7.7m/s | 0°C | 0% | 0hPa | 0V | 00:00:00 | 00:00:00 | 00:00:00 | |
| RDZBGO | 2026-08-30 11:47:54 | 41.93266 | 9.02701 | 96° | 64km/h | 10607m | 5.1m/s | 0°C | 0% | 0hPa | 0V | 00:00:00 | 00:00:00 | 00:00:00 | |
| RDZBGO | 2026-08-30 11:47:34 | 41.93261 | 9.02305 | 94° | 58km/h | 10507m | 5.1m/s | 0°C | 0% | 0hPa | 0V | 00:00:00 | 00:00:00 | 00:00:00 | |
| RDZBGO | 2026-08-30 11:47:13 | 41.93253 | 9.01905 | 93° | 53km/h | 10407m | 5.0m/s | 0°C | 0% | 0hPa | 0V | 00:00:00 | 00:00:00 | 00:00:00 | |
| RDZBGO | 2026-08-30 11:46:53 | 41.93249 | 9.01534 | 89° | 53km/h | 10325m | 6.5m/s | 0°C | 0% | 0hPa | 0V | 00:00:00 | 00:00:00 | 00:00:00 | |
| RDZBGO | 2026-08-30 11:46:32 | 41.93249 | 9.01138 | 88° | 64km/h | 10225m | 5.7m/s | 0°C | 0% | 0hPa | 0V | 00:00:00 | 00:00:00 | 00:00:00 | |
| RDZBGO | 2026-08-30 11:46:12 | 41.93238 | 9.00768 | 93° | 49km/h | 10119m | 4.0m/s | 0°C | 0% | 0hPa | 0V | 00:00:00 | 00:00:00 | 00:00:00 |